Time;durP1;ratioP1;P1;durP2;ratioP2;P2;SDS_P1;SDS_P2;PMS_P1;PMS_P2;Temp;Humidity;BMP_temperature;BMP_pressure;BME280_temperature;BME280_humidity;BME280_pressure;Samples;Min_cycle;Max_cycle;Signal;HPM_P1;HPM_P2
2024/02/07 00:01:01;;;;;;;;;;;;;;;8.78;68.68;98762.98;137161;1275;22371;-82
2024/02/07 00:04:03;;;;;;;;;;;;;;;8.78;68.77;98759.11;137162;1276;22424;-82
2024/02/07 00:07:03;;;;;;;;;;;;;;;8.76;68.76;98760.73;137122;1276;22358;-82
2024/02/07 00:10:04;;;;;;;;;;;;;;;8.75;68.65;98756.38;137096;1276;22418;-82
2024/02/07 00:13:08;;;;;;;;;;;;;;;8.76;68.74;98754.35;137147;1276;22377;-82
2024/02/07 00:16:11;;;;;;;;;;;;;;;8.76;68.82;98751.34;137105;1276;23180;-83
2024/02/07 00:19:15;;;;;;;;;;;;;;;8.77;68.83;98750.40;137127;1277;22376;-82
2024/02/07 00:22:19;;;;;;;;;;;;;;;8.78;68.78;98749.73;137180;1273;22355;-82
2024/02/07 00:25:19;;;;;;;;;;;;;;;8.79;68.81;98738.51;137128;1277;22416;-83
2024/02/07 00:28:22;;;;;;;;;;;;;;;8.78;68.92;98740.00;137203;1277;22391;-82
2024/02/07 00:31:23;;;;;;;;;;;;;;;8.77;68.75;98732.63;137150;1274;22364;-81
2024/02/07 00:34:26;;;;;;;;;;;;;;;8.76;68.81;98733.55;137147;1277;22389;-82
2024/02/07 00:37:27;;;;;;;;;;;;;;;8.77;68.79;98732.09;137110;1277;22433;-83
2024/02/07 00:40:29;;;;;;;;;;;;;;;8.76;68.78;98729.86;137148;1276;22450;-83
2024/02/07 00:43:32;;;;;;;;;;;;;;;8.75;68.81;98730.12;137176;1276;22404;-83
2024/02/07 00:46:33;;;;;;;;;;;;;;;8.73;68.99;98722.77;137157;1276;22385;-83
2024/02/07 00:49:33;;;;;;;;;;;;;;;8.73;68.91;98718.10;137126;1276;22397;-82
2024/02/07 00:52:34;;;;;;;;;;;;;;;8.73;68.99;98717.45;137163;1272;22390;-83
2024/02/07 00:55:34;;;;;;;;;;;;;;;8.74;69.04;98716.97;137162;1276;22423;-83
2024/02/07 00:58:38;;;;;;;;;;;;;;;8.76;68.98;98711.05;137152;1274;22388;-83
2024/02/07 01:01:39;;;;;;;;;;;;;;;8.77;68.83;98707.59;137130;1272;22401;-82
2024/02/07 01:04:40;;;;;;;;;;;;;;;8.76;69.04;98700.56;136961;1276;22405;-82
2024/02/07 01:07:40;;;;;;;;;;;;;;;8.75;68.94;98698.09;137115;1276;22402;-83
2024/02/07 01:10:44;;;;;;;;;;;;;;;8.74;68.94;98698.14;137152;1273;22363;-83
2024/02/07 01:13:47;;;;;;;;;;;;;;;8.72;68.98;98692.10;137169;1276;22424;-83
2024/02/07 01:16:47;;;;;;;;;;;;;;;8.73;68.89;98687.42;137151;1276;22365;-82
2024/02/07 01:19:50;;;;;;;;;;;;;;;8.70;69.03;98678.77;137150;1276;22431;-83
2024/02/07 01:22:54;;;;;;;;;;;;;;;8.67;69.01;98675.38;137182;1276;22360;-82
2024/02/07 01:25:56;;;;;;;;;;;;;;;8.66;69.27;98679.98;137157;1270;22374;-82
2024/02/07 01:28:57;;;;;;;;;;;;;;;8.62;69.42;98674.80;137165;1276;22383;-83
2024/02/07 01:31:57;;;;;;;;;;;;;;;8.59;69.45;98673.42;137150;1276;22377;-83
2024/02/07 01:34:58;;;;;;;;;;;;;;;8.58;69.52;98674.14;137159;1276;22402;-83
2024/02/07 01:38:07;;;;;;;;;;;;;;;8.56;69.60;98674.20;137129;1276;23165;-84
2024/02/07 01:41:08;;;;;;;;;;;;;;;8.53;69.78;98669.34;137152;1273;22291;-83
2024/02/07 01:44:08;;;;;;;;;;;;;;;8.51;69.90;98671.52;137158;1276;22429;-83
2024/02/07 01:47:12;;;;;;;;;;;;;;;8.48;70.00;98671.73;137181;1276;22397;-82
2024/02/07 01:50:13;;;;;;;;;;;;;;;8.47;70.03;98666.39;137159;1276;23267;-82
2024/02/07 01:53:14;;;;;;;;;;;;;;;8.46;70.03;98667.77;137142;1276;22438;-83
2024/02/07 01:56:20;;;;;;;;;;;;;;;8.46;70.14;98664.08;137186;1276;22379;-83
2024/02/07 01:59:21;;;;;;;;;;;;;;;8.46;70.14;98650.36;137160;1276;22365;-83
2024/02/07 02:02:23;;;;;;;;;;;;;;;8.47;70.12;98653.88;137142;1276;22358;-83
2024/02/07 02:05:23;;;;;;;;;;;;;;;8.47;70.10;98638.21;137135;1273;22378;-82
2024/02/07 02:08:24;;;;;;;;;;;;;;;8.47;69.98;98639.39;137153;1276;22411;-82
2024/02/07 02:11:32;;;;;;;;;;;;;;;8.47;70.23;98641.38;137103;1273;23508;-81
2024/02/07 02:14:33;;;;;;;;;;;;;;;8.47;70.08;98640.90;136941;1276;22277;-83
2024/02/07 02:17:34;;;;;;;;;;;;;;;8.47;70.11;98629.58;137141;1276;22395;-83
2024/02/07 02:20:36;;;;;;;;;;;;;;;8.48;70.21;98631.42;136933;1276;22416;-82
2024/02/07 02:23:42;;;;;;;;;;;;;;;8.48;69.97;98623.45;137200;1276;22404;-83
2024/02/07 02:26:55;;;;;;;;;;;;;;;8.48;70.24;98622.73;137178;1276;22329;-83
2024/02/07 02:30:01;;;;;;;;;;;;;;;8.47;70.11;98618.84;137130;1276;22390;-83
2024/02/07 02:33:08;;;;;;;;;;;;;;;8.47;70.23;98618.64;137139;1276;22305;-82
2024/02/07 02:36:10;;;;;;;;;;;;;;;8.47;70.15;98614.25;137156;1276;22313;-83
2024/02/07 02:39:10;;;;;;;;;;;;;;;8.46;70.14;98612.05;137139;1275;22417;-82
2024/02/07 02:42:11;;;;;;;;;;;;;;;8.45;70.29;98606.07;137173;1274;22390;-81
2024/02/07 02:45:12;;;;;;;;;;;;;;;8.45;70.20;98603.39;137153;1276;22376;-83
2024/02/07 02:48:13;;;;;;;;;;;;;;;8.45;70.19;98595.21;137175;1276;22409;-82
2024/02/07 02:51:14;;;;;;;;;;;;;;;8.44;70.10;98586.98;137211;1276;22448;-82
2024/02/07 02:54:15;;;;;;;;;;;;;;;8.42;70.21;98581.57;137173;1276;22560;-83
2024/02/07 02:57:18;;;;;;;;;;;;;;;8.41;70.24;98576.46;137156;1276;22461;-83
2024/02/07 03:00:22;;;;;;;;;;;;;;;8.43;70.34;98572.02;137199;1276;22392;-84
2024/02/07 03:03:23;;;;;;;;;;;;;;;8.42;70.53;98571.40;137140;1276;22388;-83
2024/02/07 03:06:37;;;;;;;;;;;;;;;8.41;70.78;98568.58;137197;1276;22387;-83
2024/02/07 03:09:49;;;;;;;;;;;;;;;8.39;70.93;98569.63;137193;1276;22306;-83
2024/02/07 03:13:08;;;;;;;;;;;;;;;8.37;71.08;98565.66;137161;1276;22357;-84
2024/02/07 03:16:12;;;;;;;;;;;;;;;8.36;71.35;98565.58;137197;1276;22293;-82
2024/02/07 03:19:12;;;;;;;;;;;;;;;8.34;71.48;98559.33;137149;1276;22349;-83
2024/02/07 03:22:13;;;;;;;;;;;;;;;8.32;71.46;98555.84;137146;1276;22408;-84
2024/02/07 03:25:16;;;;;;;;;;;;;;;8.31;71.53;98552.04;137160;1276;22385;-81
2024/02/07 03:28:17;;;;;;;;;;;;;;;8.31;71.49;98548.71;137201;1276;22463;-83
2024/02/07 03:31:18;;;;;;;;;;;;;;;8.33;71.38;98542.52;137203;1276;22405;-83
2024/02/07 03:34:21;;;;;;;;;;;;;;;8.33;71.57;98537.82;137153;1276;22405;-82
2024/02/07 03:37:22;;;;;;;;;;;;;;;8.30;71.70;98539.88;137178;1276;22434;-83
2024/02/07 03:40:24;;;;;;;;;;;;;;;8.26;71.94;98536.10;137125;1277;22413;-84
2024/02/07 03:43:27;;;;;;;;;;;;;;;8.24;72.09;98534.45;137171;1275;22417;-83
2024/02/07 03:46:33;;;;;;;;;;;;;;;8.24;72.13;98526.89;137198;1277;22352;-83
2024/02/07 03:49:34;;;;;;;;;;;;;;;8.24;72.22;98524.66;137156;1277;22406;-82
2024/02/07 03:52:34;;;;;;;;;;;;;;;8.22;72.23;98524.80;137214;1277;23143;-83
2024/02/07 03:55:38;;;;;;;;;;;;;;;8.21;72.27;98516.46;137173;1277;22389;-83
2024/02/07 03:58:41;;;;;;;;;;;;;;;8.21;72.36;98511.63;137180;1276;22365;-83
2024/02/07 04:01:45;;;;;;;;;;;;;;;8.20;72.48;98509.59;137155;1276;23139;-83
2024/02/07 04:04:51;;;;;;;;;;;;;;;8.20;72.49;98507.85;137142;1271;22381;-84
2024/02/07 04:07:52;;;;;;;;;;;;;;;8.20;72.67;98504.67;137169;1276;22349;-80
2024/02/07 04:10:54;;;;;;;;;;;;;;;8.20;72.64;98497.39;137168;1276;22399;-83
2024/02/07 05:17:10;;;;;;;;;;;;;;;8.05;74.28;98434.98;137157;1276;22413;-83
2024/02/07 05:20:11;;;;;;;;;;;;;;;8.05;74.61;98437.16;137135;1276;22371;-82
2024/02/07 05:23:12;;;;;;;;;;;;;;;8.01;74.79;98431.48;137133;1276;22380;-83
2024/02/07 05:26:22;;;;;;;;;;;;;;;7.95;75.30;98430.45;137121;1276;22307;-82
2024/02/07 05:29:29;;;;;;;;;;;;;;;7.90;75.49;98427.96;137180;1276;23128;-87
2024/02/07 05:32:30;;;;;;;;;;;;;;;7.89;75.67;98426.14;137125;1276;22392;-82
2024/02/07 05:35:31;;;;;;;;;;;;;;;7.90;75.78;98422.33;137110;1276;22352;-83
2024/02/07 05:38:31;;;;;;;;;;;;;;;7.91;75.94;98423.39;137097;1276;23160;-84
2024/02/07 05:41:32;;;;;;;;;;;;;;;7.91;76.17;98425.17;137152;1276;23092;-87
2024/02/07 05:44:32;;;;;;;;;;;;;;;7.90;76.19;98424.81;137134;1276;22421;-79
2024/02/07 05:47:33;;;;;;;;;;;;;;;7.91;76.19;98424.48;137161;1276;23131;-80
2024/02/07 05:50:35;;;;;;;;;;;;;;;7.92;76.17;98422.39;137093;1276;22398;-80
2024/02/07 05:53:38;;;;;;;;;;;;;;;7.93;76.10;98421.42;137217;1276;22426;-78
2024/02/07 05:56:38;;;;;;;;;;;;;;;7.94;76.30;98425.30;137141;1270;22363;-78
2024/02/07 05:59:40;;;;;;;;;;;;;;;7.94;76.23;98422.85;137116;1276;23283;-80
2024/02/07 06:02:51;;;;;;;;;;;;;;;7.95;76.38;98424.00;137147;1276;22311;-82
2024/02/07 06:05:53;;;;;;;;;;;;;;;7.94;76.66;98426.38;137120;1270;22395;-80
2024/02/07 06:08:54;;;;;;;;;;;;;;;7.92;76.72;98420.46;136961;1276;22409;-79
2024/02/07 06:11:55;;;;;;;;;;;;;;;7.87;77.05;98420.52;137104;1276;22400;-78
2024/02/07 06:15:00;;;;;;;;;;;;;;;7.85;77.21;98421.73;137126;1276;22451;-78
2024/02/07 06:18:04;;;;;;;;;;;;;;;7.84;77.15;98421.60;137086;1276;22293;-77
2024/02/07 06:21:04;;;;;;;;;;;;;;;7.84;77.47;98417.98;137140;1276;23262;-77
2024/02/07 06:24:05;;;;;;;;;;;;;;;7.83;77.43;98418.26;137133;1276;22420;-77
2024/02/07 06:27:27;;;;;;;;;;;;;;;7.84;77.34;98422.59;137124;1276;23133;-77
2024/02/07 06:30:27;;;;;;;;;;;;;;;7.84;77.47;98424.88;137128;1276;22471;-77
2024/02/07 06:33:28;;;;;;;;;;;;;;;7.83;77.51;98419.39;137134;1276;23141;-77
2024/02/07 06:36:29;;;;;;;;;;;;;;;7.82;77.48;98420.08;137104;1276;22380;-78
2024/02/07 06:39:29;;;;;;;;;;;;;;;7.80;77.43;98417.66;137150;1276;22462;-77
2024/02/07 06:42:30;;;;;;;;;;;;;;;7.84;77.23;98423.42;137097;1276;22368;-77
2024/02/07 06:45:31;;;;;;;;;;;;;;;7.89;77.03;98415.20;137105;1276;23139;-77
2024/02/07 06:48:31;;;;;;;;;;;;;;;7.91;77.01;98417.77;137136;1273;23142;-77
2024/02/07 06:51:32;;;;;;;;;;;;;;;7.93;76.66;98413.17;137144;1276;22287;-77
2024/02/07 06:54:33;;;;;;;;;;;;;;;7.96;76.48;98414.16;137123;1276;22393;-77
2024/02/07 06:57:34;;;;;;;;;;;;;;;7.98;76.26;98413.98;136998;1276;22409;-77
2024/02/07 07:00:34;;;;;;;;;;;;;;;8.00;76.24;98418.55;137126;1276;23175;-77
2024/02/07 07:03:41;;;;;;;;;;;;;;;8.01;75.92;98409.95;137110;1276;22424;-76
2024/02/07 07:06:42;;;;;;;;;;;;;;;8.05;75.77;98414.94;137144;1276;22303;-77
2024/02/07 07:09:42;;;;;;;;;;;;;;;8.10;75.25;98409.56;137100;1276;22391;-77
2024/02/07 07:12:43;;;;;;;;;;;;;;;8.14;75.09;98410.36;137127;1276;22366;-77
2024/02/07 07:15:43;;;;;;;;;;;;;;;8.15;75.11;98408.17;137117;1276;22432;-77
2024/02/07 07:18:44;;;;;;;;;;;;;;;8.18;74.81;98408.08;137119;1276;22385;-77
2024/02/07 07:21:45;;;;;;;;;;;;;;;8.20;74.79;98402.15;137142;1262;22382;-77
2024/02/07 07:24:45;;;;;;;;;;;;;;;8.23;74.75;98400.70;137102;1276;22390;-78
2024/02/07 07:27:46;;;;;;;;;;;;;;;8.26;74.41;98400.15;137113;1276;22374;-77
2024/02/07 07:30:47;;;;;;;;;;;;;;;8.30;74.33;98396.24;137172;1276;22383;-77
2024/02/07 07:33:47;;;;;;;;;;;;;;;8.33;74.24;98391.30;137106;1276;22429;-77
2024/02/07 07:36:48;;;;;;;;;;;;;;;8.35;74.18;98386.88;137133;1276;22391;-76
2024/02/07 07:39:49;;;;;;;;;;;;;;;8.39;74.00;98383.41;137014;1276;22423;-77
2024/02/07 07:42:50;;;;;;;;;;;;;;;8.45;73.96;98387.54;137098;1276;22450;-77
2024/02/07 07:45:53;;;;;;;;;;;;;;;8.51;73.97;98383.91;137097;1276;22391;-77
2024/02/07 07:49:01;;;;;;;;;;;;;;;8.58;73.63;98382.55;137086;1276;22322;-77
2024/02/07 07:52:01;;;;;;;;;;;;;;;8.63;73.61;98386.37;137141;1276;22352;-77
2024/02/07 07:55:02;;;;;;;;;;;;;;;8.64;73.62;98383.69;137102;1276;22389;-77
2024/02/07 07:58:03;;;;;;;;;;;;;;;8.66;73.22;98381.58;137064;1276;22439;-77
2024/02/07 08:01:06;;;;;;;;;;;;;;;8.66;73.33;98379.75;137086;1276;22469;-77
2024/02/07 08:04:10;;;;;;;;;;;;;;;8.67;73.48;98384.77;137084;1276;22352;-77
2024/02/07 08:07:10;;;;;;;;;;;;;;;8.68;73.29;98382.16;137094;1276;22359;-77
2024/02/07 08:10:11;;;;;;;;;;;;;;;8.69;73.10;98381.87;137088;1276;23046;-77
2024/02/07 08:13:11;;;;;;;;;;;;;;;8.70;73.17;98384.69;137108;1262;22384;-77
2024/02/07 08:16:12;;;;;;;;;;;;;;;8.70;73.03;98386.98;137118;1276;22427;-76
2024/02/07 08:19:14;;;;;;;;;;;;;;;8.70;73.06;98382.73;137094;1276;22446;-77
2024/02/07 08:22:14;;;;;;;;;;;;;;;8.71;73.25;98384.61;137084;1276;22422;-77
2024/02/07 08:25:55;;;;;;;;;;;;;;;8.70;73.43;98385.94;137113;1276;22398;-77
2024/02/07 08:28:58;;;;;;;;;;;;;;;8.65;73.97;98402.97;137106;1276;22441;-76
2024/02/07 08:31:59;;;;;;;;;;;;;;;8.61;74.65;98430.57;137125;1276;23022;-77
2024/02/07 08:35:02;;;;;;;;;;;;;;;8.35;75.92;98443.20;137137;1276;22407;-76
2024/02/07 08:38:03;;;;;;;;;;;;;;;7.94;77.11;98457.87;137074;1276;22365;-76
2024/02/07 08:41:04;;;;;;;;;;;;;;;7.52;78.32;98461.05;137073;1276;22450;-77
2024/02/07 08:44:04;;;;;;;;;;;;;;;7.19;79.58;98470.52;137123;1276;22423;-77
2024/02/07 08:47:05;;;;;;;;;;;;;;;6.92;80.52;98469.91;137067;1276;22390;-76
2024/02/07 08:50:05;;;;;;;;;;;;;;;6.75;81.02;98474.58;137134;1276;22381;-77
2024/02/07 08:53:07;;;;;;;;;;;;;;;6.61;81.96;98487.36;137093;1276;22389;-77
2024/02/07 08:56:08;;;;;;;;;;;;;;;6.46;82.89;98501.83;137082;1276;23175;-77
2024/02/07 08:59:09;;;;;;;;;;;;;;;6.35;83.49;98503.91;137126;1276;22395;-77
2024/02/07 09:02:12;;;;;;;;;;;;;;;6.17;83.39;98513.36;137102;1276;22410;-77
2024/02/07 09:05:13;;;;;;;;;;;;;;;5.99;83.61;98525.90;137097;1276;22431;-77
2024/02/07 09:08:15;;;;;;;;;;;;;;;5.87;84.44;98534.85;137055;1276;23248;-78
2024/02/07 09:11:26;;;;;;;;;;;;;;;;;;;;;
2024/02/07 09:14:27;;;;;;;;;;;;;;;5.53;84.59;98552.23;137112;1276;22276;-77
2024/02/07 09:17:31;;;;;;;;;;;;;;;5.36;85.24;98554.25;137107;1276;23082;-77
2024/02/07 09:20:34;;;;;;;;;;;;;;;5.23;84.95;98568.25;137106;1276;22498;-77
2024/02/07 09:23:35;;;;;;;;;;;;;;;5.12;84.77;98569.96;137117;1276;22367;-77
2024/02/07 09:26:35;;;;;;;;;;;;;;;5.09;85.11;98580.91;137112;1276;22452;-77
2024/02/07 09:29:36;;;;;;;;;;;;;;;5.06;84.83;98590.25;137129;1276;22372;-76
2024/02/07 09:32:38;;;;;;;;;;;;;;;5.05;85.31;98598.90;136911;1276;260244;-77
2024/02/07 09:35:39;;;;;;;;;;;;;;;5.04;85.45;98604.10;137105;1276;22388;-77
2024/02/07 09:38:39;;;;;;;;;;;;;;;5.02;85.45;98612.23;137081;1276;22385;-77
2024/02/07 09:41:40;;;;;;;;;;;;;;;4.92;85.49;98616.65;137129;1276;23142;-77
2024/02/07 09:44:45;;;;;;;;;;;;;;;4.84;85.99;98619.98;137118;1276;22391;-77
2024/02/07 09:47:55;;;;;;;;;;;;;;;4.78;86.26;98626.56;137142;1276;22403;-76
2024/02/07 09:51:00;;;;;;;;;;;;;;;4.78;85.96;98628.00;137115;1275;23118;-77
2024/02/07 09:54:01;;;;;;;;;;;;;;;4.81;85.83;98635.52;137142;1276;22392;-77
2024/02/07 09:57:02;;;;;;;;;;;;;;;4.80;85.83;98640.34;137133;1276;22408;-77
2024/02/07 10:00:02;;;;;;;;;;;;;;;4.82;85.99;98645.52;137103;1276;22395;-77
2024/02/07 10:03:06;;;;;;;;;;;;;;;4.82;86.16;98649.24;137138;1276;22367;-77
2024/02/07 10:06:08;;;;;;;;;;;;;;;4.84;86.55;98653.62;137144;1272;22398;-77
2024/02/07 10:09:09;;;;;;;;;;;;;;;4.80;86.29;98665.95;137129;1276;22457;-78
2024/02/07 10:12:12;;;;;;;;;;;;;;;4.76;86.49;98660.61;137135;1276;22386;-78
2024/02/07 10:15:12;;;;;;;;;;;;;;;4.69;86.45;98667.73;137136;1276;22454;-77
2024/02/07 10:18:13;;;;;;;;;;;;;;;4.64;86.78;98669.98;137103;1276;22411;-77
2024/02/07 10:21:14;;;;;;;;;;;;;;;4.59;87.05;98666.75;137109;1276;23164;-78
2024/02/07 10:24:15;;;;;;;;;;;;;;;4.55;86.87;98672.17;137116;1276;22424;-78
2024/02/07 10:27:16;;;;;;;;;;;;;;;4.53;87.48;98672.33;137153;1276;22356;-78
2024/02/07 10:30:17;;;;;;;;;;;;;;;4.50;87.22;98673.15;137099;1276;22416;-78
2024/02/07 10:33:18;;;;;;;;;;;;;;;4.48;87.57;98675.78;137143;1276;22395;-78
2024/02/07 10:36:21;;;;;;;;;;;;;;;4.46;87.87;98676.54;137124;1276;22412;-78
2024/02/07 10:39:22;;;;;;;;;;;;;;;4.46;87.69;98679.67;137129;1276;23590;-78
2024/02/07 10:42:22;;;;;;;;;;;;;;;4.46;87.56;98684.29;137153;1274;22397;-78
2024/02/07 10:45:23;;;;;;;;;;;;;;;4.44;87.50;98685.35;137111;1275;22413;-78
2024/02/07 10:48:24;;;;;;;;;;;;;;;4.41;87.70;98688.29;137085;1276;22441;-78
2024/02/07 10:51:35;;;;;;;;;;;;;;;4.40;87.73;98690.88;137106;1276;23054;-78
2024/02/07 10:54:35;;;;;;;;;;;;;;;4.43;88.11;98694.61;137107;1276;23113;-78
2024/02/07 10:57:40;;;;;;;;;;;;;;;4.44;88.18;98689.77;137156;1276;22420;-78
2024/02/07 11:00:41;;;;;;;;;;;;;;;4.46;88.08;98700.48;137069;1276;23178;-78
2024/02/07 11:03:42;;;;;;;;;;;;;;;4.45;88.22;98699.02;137139;1276;23014;-78
2024/02/07 11:06:43;;;;;;;;;;;;;;;4.46;88.11;98686.21;137115;1276;22394;-79
2024/02/07 11:09:45;;;;;;;;;;;;;;;4.41;86.95;98680.23;137112;1276;22452;-79
2024/02/07 11:12:47;;;;;;;;;;;;;;;4.40;87.68;98680.89;137093;1272;22447;-79
2024/02/07 11:15:47;;;;;;;;;;;;;;;4.31;88.09;98694.57;137124;1276;22415;-80
2024/02/07 11:18:48;;;;;;;;;;;;;;;4.26;87.52;98706.28;137149;1273;22438;-79
2024/02/07 11:21:49;;;;;;;;;;;;;;;4.27;87.50;98718.28;137129;1276;23462;-80
2024/02/07 11:24:51;;;;;;;;;;;;;;;4.24;87.70;98716.52;137131;1276;22392;-80
2024/02/07 11:27:53;;;;;;;;;;;;;;;4.19;87.79;98715.48;137164;1276;23032;-79
2024/02/07 11:31:07;;;;;;;;;;;;;;;;;;;;;
2024/02/07 11:34:11;;;;;;;;;;;;;;;4.14;87.75;98719.70;137197;1276;22925;-79
2024/02/07 11:37:19;;;;;;;;;;;;;;;4.11;87.94;98715.09;137109;1272;22257;-80
2024/02/07 11:40:26;;;;;;;;;;;;;;;4.09;88.18;98712.36;137107;1276;23022;-80
2024/02/07 11:43:30;;;;;;;;;;;;;;;4.07;87.96;98716.39;137131;1276;22455;-79
2024/02/07 11:46:54;;;;;;;;;;;;;;;4.07;87.96;98722.13;137115;1276;22447;-80
2024/02/07 11:50:05;;;;;;;;;;;;;;;4.08;88.33;98725.92;136975;1276;22268;-81
2024/02/07 11:53:20;;;;;;;;;;;;;;;4.07;88.23;98726.04;136942;1276;22463;-80
2024/02/07 11:56:23;;;;;;;;;;;;;;;4.07;88.60;98723.38;137164;1276;23015;-81
2024/02/07 11:59:24;;;;;;;;;;;;;;;4.06;88.57;98729.65;137109;1276;22391;-80
2024/02/07 12:02:25;;;;;;;;;;;;;;;4.08;88.58;98734.86;137126;1276;22388;-80
2024/02/07 12:05:33;;;;;;;;;;;;;;;4.08;88.69;98731.23;137146;1276;22283;-80
2024/02/07 12:08:35;;;;;;;;;;;;;;;4.03;88.84;98733.90;136964;1276;23318;-79
2024/02/07 12:11:42;;;;;;;;;;;;;;;4.00;88.86;98734.09;137151;1276;23117;-79
2024/02/07 12:14:50;;;;;;;;;;;;;;;3.94;88.95;98737.81;137111;1276;23032;-79
2024/02/07 12:17:50;;;;;;;;;;;;;;;3.91;89.38;98736.41;137146;1276;23153;-80
2024/02/07 12:20:54;;;;;;;;;;;;;;;3.88;89.36;98734.95;137124;1276;22389;-80
2024/02/07 12:23:58;;;;;;;;;;;;;;;3.89;89.62;98731.71;137158;1276;22407;-80
2024/02/07 12:27:06;;;;;;;;;;;;;;;3.89;89.84;98738.02;137168;1273;23091;-80
2024/02/07 12:30:07;;;;;;;;;;;;;;;3.90;90.18;98743.46;136994;1276;22436;-80
2024/02/07 12:33:09;;;;;;;;;;;;;;;3.88;90.03;98746.48;137140;1276;23620;-79
2024/02/07 12:36:14;;;;;;;;;;;;;;;3.87;90.37;98748.66;137132;1276;22994;-79
2024/02/07 12:39:17;;;;;;;;;;;;;;;3.86;90.48;98739.35;137149;1273;22372;-80
2024/02/07 12:42:24;;;;;;;;;;;;;;;3.87;90.63;98739.27;137127;1276;23105;-80
2024/02/07 12:45:32;;;;;;;;;;;;;;;3.94;90.73;98745.05;137152;1276;22385;-79
2024/02/07 12:48:33;;;;;;;;;;;;;;;3.96;91.06;98746.40;137173;1276;22304;-80
2024/02/07 12:51:35;;;;;;;;;;;;;;;3.94;90.87;98751.35;137136;1276;22420;-79
2024/02/07 12:54:37;;;;;;;;;;;;;;;3.92;90.81;98752.59;137150;1276;23188;-80
2024/02/07 12:57:38;;;;;;;;;;;;;;;3.92;90.96;98750.30;137142;1276;22430;-79
2024/02/07 13:00:38;;;;;;;;;;;;;;;3.92;90.78;98749.60;137093;1276;22418;-79
2024/02/07 13:03:40;;;;;;;;;;;;;;;3.96;90.91;98752.17;137134;1276;22389;-79
2024/02/07 13:06:42;;;;;;;;;;;;;;;3.97;90.54;98749.72;137148;1276;22859;-79
2024/02/07 13:09:43;;;;;;;;;;;;;;;4.02;91.21;98748.13;137140;1276;22415;-79
2024/02/07 13:12:44;;;;;;;;;;;;;;;4.03;90.70;98746.30;137172;1276;22413;-80
2024/02/07 13:15:48;;;;;;;;;;;;;;;4.00;90.29;98744.36;137178;1276;22407;-80
2024/02/07 13:18:51;;;;;;;;;;;;;;;4.01;90.52;98752.50;137170;1276;22385;-79
2024/02/07 13:21:54;;;;;;;;;;;;;;;4.00;90.68;98756.23;137128;1276;23147;-80
2024/02/07 13:25:50;;;;;;;;;;;;;;;;;;;;;
2024/02/07 13:28:43;;;;;;;;;;;;;;;3.97;90.59;98733.52;137112;1276;22405;-79
2024/02/07 13:31:44;;;;;;;;;;;;;;;3.96;90.48;98731.02;137146;1276;22380;-79
2024/02/07 13:34:47;;;;;;;;;;;;;;;3.98;90.62;98728.98;136968;1276;22445;-79
2024/02/07 13:37:49;;;;;;;;;;;;;;;4.01;90.52;98734.67;137178;1265;22443;-79
2024/02/07 13:41:22;;;;;;;;;;;;;;;;;;;;;
2024/02/07 13:44:32;;;;;;;;;;;;;;;4.00;90.53;98725.09;137184;1276;22959;-80
2024/02/07 13:47:33;;;;;;;;;;;;;;;3.97;90.30;98737.86;137138;1276;22370;-79
2024/02/07 13:50:37;;;;;;;;;;;;;;;3.99;90.13;98741.65;137101;1276;22499;-79
2024/02/07 13:53:43;;;;;;;;;;;;;;;4.00;89.98;98738.95;137178;1276;22378;-79
2024/02/07 13:56:45;;;;;;;;;;;;;;;4.02;90.04;98743.84;137150;1276;22386;-79
2024/02/07 13:59:46;;;;;;;;;;;;;;;3.99;89.55;98739.20;137178;1276;22539;-79
2024/02/07 14:02:46;;;;;;;;;;;;;;;3.95;89.31;98735.48;137150;1276;22860;-79
2024/02/07 14:05:47;;;;;;;;;;;;;;;3.92;89.36;98727.70;137099;1276;22383;-79
2024/02/07 14:08:48;;;;;;;;;;;;;;;3.91;89.66;98733.95;137198;1276;22401;-79
2024/02/07 14:11:49;;;;;;;;;;;;;;;3.90;89.44;98743.26;137143;1274;23634;-79
2024/02/07 14:14:49;;;;;;;;;;;;;;;3.93;89.66;98747.95;137149;1272;22379;-79
2024/02/07 14:17:57;;;;;;;;;;;;;;;3.92;89.58;98751.48;137140;1276;22482;-79
2024/02/07 14:21:00;;;;;;;;;;;;;;;3.94;89.79;98747.15;137143;1276;22287;-79
2024/02/07 14:24:03;;;;;;;;;;;;;;;3.93;89.74;98749.13;137122;1276;23152;-79
2024/02/07 14:27:04;;;;;;;;;;;;;;;3.91;88.98;98758.27;137134;1276;22386;-79
2024/02/07 14:30:05;;;;;;;;;;;;;;;3.87;88.89;98768.28;137156;1273;22431;-80
2024/02/07 14:33:07;;;;;;;;;;;;;;;3.85;88.70;98779.88;137182;1276;22392;-80
2024/02/07 14:36:08;;;;;;;;;;;;;;;3.84;88.48;98776.02;137149;1276;22369;-79
2024/02/07 14:39:08;;;;;;;;;;;;;;;3.81;88.33;98779.23;137119;1271;22395;-80
2024/02/07 14:42:09;;;;;;;;;;;;;;;3.79;88.33;98776.40;137142;1276;22448;-80
2024/02/07 14:45:13;;;;;;;;;;;;;;;3.77;88.28;98779.77;137148;1276;22628;-79
2024/02/07 14:48:13;;;;;;;;;;;;;;;3.76;88.36;98778.48;137159;1276;22388;-79
2024/02/07 14:51:14;;;;;;;;;;;;;;;3.77;88.29;98780.17;137152;1276;22369;-79
2024/02/07 14:54:18;;;;;;;;;;;;;;;3.78;88.44;98781.06;137125;1276;23203;-79
2024/02/07 14:57:18;;;;;;;;;;;;;;;3.78;88.21;98786.90;137113;1276;22379;-79
2024/02/07 15:00:22;;;;;;;;;;;;;;;3.78;88.40;98785.36;137191;1276;22474;-79
2024/02/07 15:03:23;;;;;;;;;;;;;;;3.78;88.17;98781.66;136928;1276;22395;-79
2024/02/07 15:06:24;;;;;;;;;;;;;;;3.78;88.27;98791.14;137121;1276;22451;-79
2024/02/07 15:09:28;;;;;;;;;;;;;;;3.80;88.35;98802.65;136965;1276;22420;-79
2024/02/07 15:12:28;;;;;;;;;;;;;;;3.79;88.46;98794.96;137142;1275;23129;-79
2024/02/07 15:15:29;;;;;;;;;;;;;;;3.77;88.05;98794.36;137122;1276;22376;-79
2024/02/07 15:18:33;;;;;;;;;;;;;;;3.74;88.12;98785.13;137096;1276;22392;-79
2024/02/07 15:21:34;;;;;;;;;;;;;;;3.73;87.89;98785.69;137107;1276;22426;-80
2024/02/07 15:24:35;;;;;;;;;;;;;;;3.70;87.80;98786.32;137118;1276;22399;-79
2024/02/07 15:27:36;;;;;;;;;;;;;;;3.67;87.87;98787.98;137169;1277;22378;-80
2024/02/07 15:30:37;;;;;;;;;;;;;;;3.67;87.63;98795.33;137139;1276;22432;-78
2024/02/07 15:33:37;;;;;;;;;;;;;;;3.65;87.44;98803.73;137022;1277;22380;-78
2024/02/07 15:36:39;;;;;;;;;;;;;;;3.65;87.36;98826.50;137107;1276;22494;-79
2024/02/07 15:39:39;;;;;;;;;;;;;;;3.65;87.42;98833.38;137115;1277;22388;-77
2024/02/07 15:42:42;;;;;;;;;;;;;;;3.64;87.09;98825.44;137124;1275;22477;-78
2024/02/07 15:45:43;;;;;;;;;;;;;;;3.63;87.07;98826.25;137086;1276;22388;-78
2024/02/07 15:48:43;;;;;;;;;;;;;;;3.60;86.76;98825.59;137100;1277;22377;-78
2024/02/07 15:51:50;;;;;;;;;;;;;;;3.57;86.88;98834.45;137127;1276;22411;-79
2024/02/07 15:54:51;;;;;;;;;;;;;;;3.56;86.92;98829.33;137124;1276;22393;-78
2024/02/07 15:57:52;;;;;;;;;;;;;;;3.53;86.75;98833.46;136937;1276;23047;-79
2024/02/07 16:00:57;;;;;;;;;;;;;;;3.51;86.85;98838.20;137044;1274;22399;-78
2024/02/07 16:03:58;;;;;;;;;;;;;;;3.49;86.97;98847.00;137129;1277;22550;-78
2024/02/07 16:07:01;;;;;;;;;;;;;;;3.48;86.72;98853.03;137139;1277;23160;-78
2024/02/07 16:10:13;;;;;;;;;;;;;;;;;;;;;
2024/02/07 16:13:21;;;;;;;;;;;;;;;3.46;87.08;98849.89;137155;1276;22461;-80
2024/02/07 16:16:42;;;;;;;;;;;;;;;3.46;86.75;98844.85;137097;1277;22578;-78
2024/02/07 16:19:52;;;;;;;;;;;;;;;3.46;86.85;98854.77;137127;1276;22290;-79
2024/02/07 16:22:53;;;;;;;;;;;;;;;3.45;86.80;98852.09;136933;1276;22399;-79
2024/02/07 16:26:04;;;;;;;;;;;;;;;;;;;;;
2024/02/07 16:29:12;;;;;;;;;;;;;;;3.41;86.24;98864.77;137129;1276;22962;-79
2024/02/07 16:32:15;;;;;;;;;;;;;;;3.38;86.65;98865.50;136949;1276;22401;-78
2024/02/07 16:35:17;;;;;;;;;;;;;;;3.36;86.62;98876.58;137150;1276;22442;-79
2024/02/07 16:38:18;;;;;;;;;;;;;;;3.34;86.42;98877.61;137135;1273;23233;-78
2024/02/07 16:41:19;;;;;;;;;;;;;;;3.33;86.56;98882.15;136943;1277;23174;-77
2024/02/07 16:44:28;;;;;;;;;;;;;;;3.32;86.58;98883.98;137149;1275;22437;-78
2024/02/07 16:47:28;;;;;;;;;;;;;;;3.31;86.47;98884.91;137136;1277;22308;-78
2024/02/07 16:50:29;;;;;;;;;;;;;;;3.31;86.79;98894.58;137165;1275;22467;-79
2024/02/07 16:53:30;;;;;;;;;;;;;;;3.31;86.89;98896.52;137111;1276;22381;-77
2024/02/07 16:56:31;;;;;;;;;;;;;;;3.29;86.70;98903.27;137127;1276;23083;-78
2024/02/07 16:59:32;;;;;;;;;;;;;;;3.28;87.00;98899.27;137132;1276;23034;-77
2024/02/07 17:02:34;;;;;;;;;;;;;;;3.25;86.88;98890.92;136913;1276;22420;-78